createdAt,value
2023-02-21T00:00:13.567Z,98129.89
2023-02-21T00:03:30.329Z,98129.38
2023-02-21T00:06:22.409Z,98129.23
2023-02-21T00:09:22.303Z,98118.95
2023-02-21T00:12:31.754Z,98121.95
2023-02-21T00:15:41.374Z,98123.94
2023-02-21T00:18:53.939Z,98126.95
2023-02-21T00:21:52.747Z,98119.83
2023-02-21T00:25:02.419Z,98119.85
2023-02-21T00:28:12.007Z,98120.89
2023-02-21T00:31:16.882Z,98123.85
2023-02-21T00:34:26.873Z,98119.31
2023-02-21T00:37:21.550Z,98124.05
2023-02-21T00:40:14.078Z,98130.21
2023-02-21T00:43:24.067Z,98127.72
2023-02-21T00:46:30.523Z,98124.39
2023-02-21T00:49:24.370Z,98119.98
2023-02-21T00:52:34.354Z,98126.98
2023-02-21T00:55:24.676Z,98124.59
2023-02-21T00:58:34.274Z,98117.47
2023-02-21T01:01:34.298Z,98117.91
2023-02-21T01:04:24.371Z,98116.11
2023-02-21T01:07:33.851Z,98112.73
2023-02-21T01:10:43.567Z,98114.54
2023-02-21T01:13:53.222Z,98111.88
2023-02-21T01:17:12.541Z,98117.04
2023-02-21T01:20:23.216Z,98117.46
2023-02-21T01:23:32.853Z,98121.18
2023-02-21T01:26:42.769Z,98112.75
2023-02-21T01:29:52.648Z,98111.45
2023-02-21T01:32:51.351Z,98107.88
2023-02-21T01:36:01.560Z,98100.48
2023-02-21T01:39:11.201Z,98098.60
2023-02-21T01:42:21.459Z,98094.17
2023-02-21T01:46:05.261Z,98092.50
2023-02-21T01:49:04.545Z,98089.72
2023-02-21T01:52:16.104Z,98089.20
2023-02-21T01:55:26.663Z,98084.02
2023-02-21T01:58:37.440Z,98083.16
2023-02-21T02:01:56.374Z,98078.54
2023-02-21T02:05:08.497Z,98079.11
2023-02-21T02:08:18.387Z,98077.77
2023-02-21T02:11:39.334Z,98079.91
2023-02-21T02:14:47.763Z,98078.44
2023-02-21T02:17:50.507Z,98075.70
2023-02-21T02:21:03.017Z,98073.85
2023-02-21T02:24:23.173Z,98070.95
2023-02-21T02:27:42.951Z,98074.25
2023-02-21T02:31:12.890Z,98068.71
2023-02-21T02:34:48.468Z,98071.02
2023-02-21T02:37:50.415Z,98071.88
2023-02-21T02:40:53.196Z,98071.90
2023-02-21T02:43:52.314Z,98065.34
2023-02-21T02:46:47.273Z,98068.67
2023-02-21T02:49:43.727Z,98068.19
2023-02-21T02:52:38.802Z,98069.29
2023-02-21T02:55:40.591Z,98071.20
2023-02-21T02:58:33.415Z,98072.42
2023-02-21T03:01:48.352Z,98071.37
2023-02-21T03:05:25.862Z,98070.35
2023-02-21T03:08:15.986Z,98074.86
2023-02-21T03:11:16.314Z,98073.12
2023-02-21T03:13:59.256Z,98071.02
2023-02-21T03:16:56.968Z,98076.20
2023-02-21T03:19:52.226Z,98067.36
2023-02-21T03:22:47.420Z,98063.89
2023-02-21T03:25:41.245Z,98062.49
2023-02-21T03:28:34.915Z,98064.91
2023-02-21T03:31:32.129Z,98067.34
2023-02-21T03:34:14.780Z,98070.11
2023-02-21T03:36:50.174Z,98066.65
2023-02-21T03:39:24.749Z,98065.11
2023-02-21T03:41:59.513Z,98061.45
2023-02-21T03:44:51.607Z,98058.84
2023-02-21T03:47:43.692Z,98058.31
2023-02-21T03:50:35.763Z,98060.77
2023-02-21T03:53:11.527Z,98065.27
2023-02-21T03:55:53.194Z,98069.30
2023-02-21T03:58:45.282Z,98069.33
2023-02-21T04:01:37.431Z,98069.70
2023-02-21T04:04:29.531Z,98069.04
2023-02-21T04:07:22.414Z,98069.77
2023-02-21T04:10:05.112Z,98070.83
2023-02-21T04:12:57.244Z,98074.68
2023-02-21T04:15:49.476Z,98077.46
2023-02-21T04:18:41.600Z,98074.35
2023-02-21T04:21:33.749Z,98067.77
2023-02-21T04:24:25.921Z,98069.51
2023-02-21T04:27:07.597Z,98070.39
2023-02-21T04:29:44.730Z,98065.00
2023-02-21T04:32:36.875Z,98070.20
2023-02-21T04:35:29.010Z,98074.88
2023-02-21T04:38:21.244Z,98076.44
2023-02-21T04:41:14.179Z,98079.07
2023-02-21T04:44:07.296Z,98080.48
2023-02-21T04:46:59.416Z,98079.24
2023-02-21T04:49:52.902Z,98077.52
2023-02-21T04:52:45.035Z,98074.20
2023-02-21T04:55:37.192Z,98079.77
2023-02-21T04:58:36.450Z,98081.00
2023-02-21T05:01:36.844Z,98079.40
2023-02-21T05:04:29.014Z,98076.61
2023-02-21T05:07:11.951Z,98082.89
2023-02-21T05:10:05.439Z,98083.23
2023-02-21T05:12:57.511Z,98078.03
2023-02-21T05:15:49.973Z,98083.98
2023-02-21T05:18:44.469Z,98084.16
2023-02-21T05:21:38.872Z,98079.52
2023-02-21T05:24:32.297Z,98079.90
2023-02-21T05:27:24.836Z,98074.16
2023-02-21T05:30:14.708Z,98067.73
2023-02-21T05:33:06.932Z,98069.98
2023-02-21T05:35:59.876Z,98064.42
2023-02-21T05:38:54.211Z,98065.46
2023-02-21T05:41:52.202Z,98065.60
2023-02-21T05:44:46.489Z,98070.46
2023-02-21T05:47:38.708Z,98070.63
2023-02-21T05:50:31.156Z,98073.02
2023-02-21T05:53:23.257Z,98067.80
2023-02-21T05:56:15.591Z,98065.02
2023-02-21T05:59:07.651Z,98066.89
2023-02-21T06:02:00.138Z,98070.00
2023-02-21T06:04:52.192Z,98069.30
2023-02-21T06:07:44.314Z,98069.96
2023-02-21T06:10:36.384Z,98075.67
2023-02-21T06:13:28.455Z,98077.02
2023-02-21T06:16:20.813Z,98079.91
2023-02-21T06:19:13.811Z,98075.21
2023-02-21T06:22:05.866Z,98077.24
2023-02-21T06:24:58.077Z,98070.27
2023-02-21T06:27:50.414Z,98082.77
2023-02-21T06:30:42.651Z,98087.13
2023-02-21T06:33:34.938Z,98091.30
2023-02-21T06:36:29.887Z,98093.85
2023-02-21T06:39:23.180Z,98105.81
2023-02-21T06:42:17.368Z,98107.01
2023-02-21T06:45:10.280Z,98110.66
2023-02-21T06:47:55.429Z,98115.68
2023-02-21T06:50:47.690Z,98123.15
2023-02-21T06:53:25.099Z,98116.29
2023-02-21T06:56:17.302Z,98119.21
2023-02-21T06:59:09.500Z,98116.17
2023-02-21T07:02:02.888Z,98120.33
2023-02-21T07:04:40.053Z,98120.70
2023-02-21T07:07:32.230Z,98123.11
2023-02-21T07:10:24.371Z,98111.94
2023-02-21T07:12:59.117Z,98119.71
2023-02-21T07:15:33.589Z,98118.98
2023-02-21T07:18:14.389Z,98121.45
2023-02-21T07:21:06.772Z,98126.36
2023-02-21T07:23:54.324Z,98127.38
2023-02-21T07:26:46.631Z,98131.52
2023-02-21T07:29:38.828Z,98139.52
2023-02-21T07:32:31.246Z,98133.05
2023-02-21T07:35:13.329Z,98133.73
2023-02-21T07:38:05.508Z,98140.11
2023-02-21T07:40:58.899Z,98133.13
2023-02-21T07:43:34.227Z,98130.57
2023-02-21T07:46:29.504Z,98134.16
2023-02-21T07:49:21.715Z,98133.60
2023-02-21T07:52:13.810Z,98126.85
2023-02-21T07:54:54.958Z,98123.47
2023-02-21T07:57:26.929Z,98127.61
2023-02-21T08:00:19.719Z,98131.33
2023-02-21T08:03:00.921Z,98129.48
2023-02-21T08:05:53.015Z,98123.59
2023-02-21T08:08:27.232Z,98118.83
2023-02-21T08:11:19.352Z,98128.81
2023-02-21T08:14:11.501Z,98133.14
2023-02-21T08:17:03.682Z,98133.65
2023-02-21T08:19:55.907Z,98132.41
2023-02-21T08:22:30.998Z,98139.57
2023-02-21T08:25:23.262Z,98136.29
2023-02-21T08:28:15.729Z,98138.48
2023-02-21T08:30:50.613Z,98136.46
2023-02-21T08:33:31.800Z,98138.04
2023-02-21T08:36:32.677Z,98145.27
2023-02-21T08:39:24.923Z,98153.30
2023-02-21T08:42:17.576Z,98150.63
2023-02-21T08:45:16.055Z,98157.14
2023-02-21T08:47:51.610Z,98162.45
2023-02-21T08:50:43.779Z,98169.27
2023-02-21T08:53:35.969Z,98165.61
2023-02-21T08:56:28.929Z,98164.20
2023-02-21T08:59:21.280Z,98171.74
2023-02-21T09:02:18.130Z,98170.67
2023-02-21T09:05:12.299Z,98171.66
2023-02-21T09:08:05.334Z,98175.42
2023-02-21T09:11:00.711Z,98178.57
2023-02-21T09:13:55.373Z,98175.05
2023-02-21T09:16:48.034Z,98177.30
2023-02-21T09:19:40.518Z,98179.79
2023-02-21T09:22:32.760Z,98188.37
2023-02-21T09:25:05.815Z,98187.59
2023-02-21T09:28:00.494Z,98187.04
2023-02-21T09:30:35.638Z,98186.85
2023-02-21T09:33:27.842Z,98189.95
2023-02-21T09:36:23.597Z,98197.70
2023-02-21T09:39:16.232Z,98204.70
2023-02-21T09:41:49.116Z,98208.27
2023-02-21T09:44:41.572Z,98212.44
2023-02-21T09:47:33.250Z,98215.98
2023-02-21T09:50:17.254Z,98200.57
2023-02-21T09:52:50.177Z,98206.95
2023-02-21T09:55:32.791Z,98205.28
2023-02-21T09:58:25.454Z,98204.98
2023-02-21T10:01:26.788Z,98196.64
2023-02-21T10:04:15.088Z,98195.55
2023-02-21T10:07:15.231Z,98192.30
2023-02-21T10:09:57.207Z,98192.70
2023-02-21T10:12:55.346Z,98196.81
2023-02-21T10:15:48.791Z,98194.33
2023-02-21T10:18:32.411Z,98193.30
2023-02-21T10:21:30.194Z,98190.88
2023-02-21T10:24:25.350Z,98197.20
2023-02-21T10:27:08.830Z,98194.22
2023-02-21T10:30:08.779Z,98193.58
2023-02-21T10:32:43.514Z,98198.96
2023-02-21T10:35:36.563Z,98207.47
2023-02-21T10:38:20.103Z,98207.50
2023-02-21T10:40:59.515Z,98203.81
2023-02-21T10:43:38.457Z,98209.26
2023-02-21T10:46:21.348Z,98210.57
2023-02-21T10:48:56.507Z,98211.73
2023-02-21T10:51:39.088Z,98216.66
2023-02-21T10:54:22.620Z,98215.33
2023-02-21T10:57:04.282Z,98218.21
2023-02-21T10:59:56.566Z,98216.92
2023-02-21T11:02:54.885Z,98213.47
2023-02-21T11:05:51.972Z,98214.86
2023-02-21T11:08:39.159Z,98213.00
2023-02-21T11:11:42.952Z,98213.15
2023-02-21T11:14:35.828Z,98216.03
2023-02-21T11:17:29.280Z,98227.06
2023-02-21T11:20:24.593Z,98224.13
2023-02-21T11:23:18.496Z,98224.60
2023-02-21T11:26:12.900Z,98233.66
2023-02-21T11:29:12.900Z,98228.56
2023-02-21T11:32:29.156Z,98226.34
2023-02-21T11:35:30.248Z,98233.42
2023-02-21T11:38:37.194Z,98235.42
2023-02-21T11:41:36.864Z,98240.60
2023-02-21T11:44:32.260Z,98237.52
2023-02-21T11:47:28.333Z,98239.39
2023-02-21T11:50:28.366Z,98247.14
2023-02-21T11:53:24.945Z,98243.05
2023-02-21T11:56:36.236Z,98246.84
2023-02-21T11:59:37.145Z,98247.27
2023-02-21T12:02:46.627Z,98254.63
2023-02-21T12:05:32.156Z,98253.23
2023-02-21T12:08:38.216Z,98237.67
2023-02-21T12:11:44.574Z,98235.90
2023-02-21T12:14:52.839Z,98235.51
2023-02-21T12:18:01.373Z,98241.31
2023-02-21T12:21:12.002Z,98240.92
2023-02-21T12:24:24.200Z,98235.56
2023-02-21T12:27:22.651Z,98233.48
2023-02-21T12:30:36.783Z,98225.36
2023-02-21T12:33:42.825Z,98221.38
2023-02-21T12:36:55.286Z,98218.02
2023-02-21T12:40:04.597Z,98216.58
2023-02-21T12:43:23.071Z,98226.34
2023-02-21T12:46:26.339Z,98221.40
2023-02-21T12:49:23.146Z,98222.83
2023-02-21T12:52:19.993Z,98215.65
2023-02-21T12:55:19.502Z,98219.25
2023-02-21T12:58:20.956Z,98218.96
2023-02-21T13:01:10.648Z,98218.16
2023-02-21T13:04:15.361Z,98219.95
2023-02-21T13:06:58.875Z,98223.38
2023-02-21T13:09:55.640Z,98215.02
2023-02-21T13:12:34.328Z,98211.86
2023-02-21T13:15:28.822Z,98224.63
2023-02-21T13:18:24.745Z,98228.36
2023-02-21T13:21:21.370Z,98229.67
2023-02-21T13:24:35.005Z,98225.12
2023-02-21T13:27:51.033Z,98225.23
2023-02-21T13:30:40.740Z,98230.52
2023-02-21T13:33:43.896Z,98223.81
2023-02-21T13:36:44.878Z,98225.73
2023-02-21T13:39:38.618Z,98224.17
2023-02-21T13:42:34.621Z,98225.36
2023-02-21T13:45:22.200Z,98229.66
2023-02-21T13:48:27.207Z,98230.14
2023-02-21T13:51:02.469Z,98238.60
2023-02-21T13:54:15.762Z,98233.47
2023-02-21T13:57:31.944Z,98238.38
2023-02-21T14:00:49.916Z,98242.89
2023-02-21T14:03:42.464Z,98241.09
2023-02-21T14:06:38.744Z,98234.93
2023-02-21T14:09:35.907Z,98233.43
2023-02-21T14:12:15.856Z,98229.95
2023-02-21T14:14:52.522Z,98227.61
2023-02-21T14:17:37.889Z,98232.65
2023-02-21T14:20:31.456Z,98237.15
2023-02-21T14:23:18.562Z,98236.52
2023-02-21T14:26:50.973Z,98243.78
2023-02-21T14:29:44.994Z,98248.46
2023-02-21T14:32:39.776Z,98248.13
2023-02-21T14:35:37.456Z,98249.66
2023-02-21T14:38:22.961Z,98253.42
2023-02-21T14:41:20.690Z,98256.19
2023-02-21T14:44:10.810Z,98255.23
2023-02-21T14:47:16.072Z,98260.91
2023-02-21T14:50:25.346Z,98261.66
2023-02-21T14:53:51.833Z,98263.81
2023-02-21T14:56:46.673Z,98263.80
2023-02-21T15:00:00.888Z,98267.71
2023-02-21T15:02:48.981Z,98272.24
2023-02-21T15:05:33.381Z,98272.20
2023-02-21T15:08:27.916Z,98276.34
2023-02-21T15:11:05.718Z,98277.94
2023-02-21T15:13:40.096Z,98283.48
2023-02-21T15:16:23.675Z,98284.34
2023-02-21T15:19:25.606Z,98281.84
2023-02-21T15:22:25.151Z,98286.89
2023-02-21T15:25:24.752Z,98285.69
2023-02-21T15:28:05.914Z,98289.82
2023-02-21T15:30:59.843Z,98292.19
2023-02-21T15:33:54.978Z,98294.39
2023-02-21T15:36:49.690Z,98298.68
2023-02-21T15:39:46.522Z,98298.98
2023-02-21T15:42:40.559Z,98294.55
2023-02-21T15:45:23.314Z,98293.23
2023-02-21T15:48:15.884Z,98303.61
2023-02-21T15:51:11.325Z,98305.45
2023-02-21T15:54:23.621Z,98303.97
2023-02-21T15:57:28.376Z,98308.56
2023-02-21T16:00:27.648Z,98313.36
2023-02-21T16:03:40.804Z,98318.52
2023-02-21T16:06:34.358Z,98322.22
2023-02-21T16:09:24.246Z,98325.58
2023-02-21T16:12:05.012Z,98330.15
2023-02-21T16:14:44.892Z,98335.27
2023-02-21T16:17:39.550Z,98340.77
2023-02-21T16:20:33.958Z,98344.66
2023-02-21T16:23:31.725Z,98348.91
2023-02-21T16:26:28.238Z,98354.15
2023-02-21T16:29:20.383Z,98359.05
2023-02-21T16:31:55.189Z,98361.71
2023-02-21T16:34:47.768Z,98368.42
2023-02-21T16:37:39.888Z,98366.25
2023-02-21T16:40:33.957Z,98365.45
2023-02-21T16:43:27.973Z,98367.44
2023-02-21T16:46:29.575Z,98366.31
2023-02-21T16:49:05.276Z,98367.96
2023-02-21T16:51:47.473Z,98372.04
2023-02-21T16:54:21.977Z,98374.30
2023-02-21T16:57:14.124Z,98376.70
2023-02-21T17:00:07.829Z,98379.23
2023-02-21T17:03:00.208Z,98382.98
2023-02-21T17:05:53.639Z,98381.14
2023-02-21T17:08:46.073Z,98387.52
2023-02-21T17:11:18.327Z,98386.59
2023-02-21T17:14:10.504Z,98392.78
2023-02-21T17:16:45.824Z,98399.55
2023-02-21T17:19:29.220Z,98399.69
2023-02-21T17:22:21.465Z,98401.56
2023-02-21T17:25:13.594Z,98410.25
2023-02-21T17:28:06.324Z,98412.65
2023-02-21T17:30:58.565Z,98419.95
2023-02-21T17:33:51.871Z,98419.95
2023-02-21T17:36:26.580Z,98423.93
2023-02-21T17:38:59.077Z,98423.94
2023-02-21T17:41:52.735Z,98429.16
2023-02-21T17:44:48.294Z,98432.67
2023-02-21T17:47:39.177Z,98431.88
2023-02-21T17:50:31.336Z,98430.89
2023-02-21T17:53:23.468Z,98438.43
2023-02-21T17:56:19.408Z,98437.36
2023-02-21T17:59:11.605Z,98435.77
2023-02-21T18:01:46.844Z,98438.00
2023-02-21T18:04:39.106Z,98446.54
2023-02-21T18:07:32.882Z,98449.14
2023-02-21T18:10:26.993Z,98454.18
2023-02-21T18:13:23.646Z,98454.91
2023-02-21T18:16:15.833Z,98462.59
2023-02-21T18:18:57.446Z,98460.55
2023-02-21T18:21:49.837Z,98470.05
2023-02-21T18:24:42.441Z,98473.48
2023-02-21T18:27:17.452Z,98476.59
2023-02-21T18:30:12.344Z,98476.33
2023-02-21T18:32:55.259Z,98479.03
2023-02-21T18:35:47.440Z,98483.95
2023-02-21T18:38:35.736Z,98484.38
2023-02-21T18:41:28.012Z,98486.73
2023-02-21T18:44:20.430Z,98492.03
2023-02-21T18:47:03.116Z,98498.38
2023-02-21T18:49:44.913Z,98503.44
2023-02-21T18:52:30.634Z,98511.34
2023-02-21T18:55:22.732Z,98513.30
2023-02-21T18:58:14.990Z,98511.42
2023-02-21T19:01:11.485Z,98515.30
2023-02-21T19:04:04.022Z,98521.25
2023-02-21T19:06:56.112Z,98524.78
2023-02-21T19:09:31.383Z,98530.37
2023-02-21T19:12:23.543Z,98541.54
2023-02-21T19:15:16.450Z,98549.04
2023-02-21T19:17:53.731Z,98552.67
2023-02-21T19:20:46.044Z,98554.61
2023-02-21T19:23:35.502Z,98554.31
2023-02-21T19:26:31.357Z,98563.23
2023-02-21T19:29:23.641Z,98565.16
2023-02-21T19:31:59.177Z,98568.31
2023-02-21T19:34:36.945Z,98572.69
2023-02-21T19:37:29.039Z,98576.15
2023-02-21T19:40:21.483Z,98573.04
2023-02-21T19:42:59.076Z,98576.54
2023-02-21T19:45:34.162Z,98575.02
2023-02-21T19:48:09.379Z,98581.11
2023-02-21T19:50:51.947Z,98582.20
2023-02-21T19:53:44.199Z,98582.26
2023-02-21T19:56:26.238Z,98583.33
2023-02-21T19:59:03.559Z,98583.00
2023-02-21T20:01:56.415Z,98589.48
2023-02-21T20:04:49.755Z,98587.05
2023-02-21T20:07:38.459Z,98590.23
2023-02-21T20:10:31.301Z,98595.13
2023-02-21T20:13:29.547Z,98595.64
2023-02-21T20:16:11.165Z,98598.60
2023-02-21T20:19:03.559Z,98594.95
2023-02-21T20:21:56.312Z,98594.46
2023-02-21T20:24:31.924Z,98595.52
2023-02-21T20:27:24.258Z,98595.23
2023-02-21T20:29:56.552Z,98591.63
2023-02-21T20:32:48.709Z,98593.94
2023-02-21T20:35:41.246Z,98602.52
2023-02-21T20:38:21.896Z,98611.39
2023-02-21T20:41:00.177Z,98609.50
2023-02-21T20:43:35.849Z,98609.85
2023-02-21T20:46:29.151Z,98614.07
2023-02-21T20:49:07.600Z,98613.05
2023-02-21T20:52:00.070Z,98618.63
2023-02-21T20:54:52.889Z,98617.45
2023-02-21T20:57:45.206Z,98615.38
2023-02-21T21:00:24.417Z,98622.40
2023-02-21T21:03:17.232Z,98621.41
2023-02-21T21:05:59.266Z,98619.50
2023-02-21T21:08:33.910Z,98625.44
2023-02-21T21:11:28.978Z,98629.25
2023-02-21T21:14:21.112Z,98627.69
2023-02-21T21:17:15.266Z,98636.21
2023-02-21T21:20:14.732Z,98636.73
2023-02-21T21:23:07.027Z,98639.51
2023-02-21T21:26:01.874Z,98638.13
2023-02-21T21:28:36.836Z,98639.35
2023-02-21T21:31:28.990Z,98639.33
2023-02-21T21:34:04.273Z,98636.90
2023-02-21T21:36:57.957Z,98641.24
2023-02-21T21:39:54.459Z,98642.45
2023-02-21T21:42:49.103Z,98641.75
2023-02-21T21:45:44.497Z,98643.30
2023-02-21T21:48:36.948Z,98645.55
2023-02-21T21:51:31.538Z,98648.85
2023-02-21T21:54:25.509Z,98650.41
2023-02-21T21:57:03.505Z,98649.20
2023-02-21T21:59:57.272Z,98652.84
2023-02-21T22:02:50.113Z,98654.76
2023-02-21T22:05:44.005Z,98655.63
2023-02-21T22:08:36.122Z,98658.57
2023-02-21T22:11:28.152Z,98661.34
2023-02-21T22:14:22.624Z,98664.13
2023-02-21T22:17:01.008Z,98666.38
2023-02-21T22:19:41.562Z,98671.23
2023-02-21T22:22:29.872Z,98671.40
2023-02-21T22:25:23.414Z,98674.35
2023-02-21T22:28:15.704Z,98674.70
2023-02-21T22:31:09.803Z,98676.26
2023-02-21T22:34:02.183Z,98680.42
2023-02-21T22:36:56.265Z,98681.29
2023-02-21T22:39:48.337Z,98683.20
2023-02-21T22:42:29.208Z,98687.54
2023-02-21T22:45:22.284Z,98683.55
2023-02-21T22:48:04.992Z,98680.26
2023-02-21T22:50:44.359Z,98684.77
2023-02-21T22:53:36.442Z,98684.23
2023-02-21T22:56:30.342Z,98689.27
2023-02-21T22:59:24.631Z,98690.14
2023-02-21T23:01:58.313Z,98697.77
2023-02-21T23:04:42.006Z,98698.12
2023-02-21T23:07:34.308Z,98696.56
2023-02-21T23:10:16.537Z,98698.47
2023-02-21T23:13:14.194Z,98695.86
2023-02-21T23:16:06.776Z,98698.10
2023-02-21T23:18:59.047Z,98698.44
2023-02-21T23:21:49.624Z,98694.62
2023-02-21T23:24:24.679Z,98697.36
2023-02-21T23:27:16.845Z,98699.61
2023-02-21T23:30:10.486Z,98698.05
2023-02-21T23:33:02.442Z,98699.23
2023-02-21T23:35:56.324Z,98701.98
2023-02-21T23:38:29.040Z,98708.73
2023-02-21T23:41:09.039Z,98705.59
2023-02-21T23:44:01.175Z,98705.39
2023-02-21T23:46:53.929Z,98708.13
2023-02-21T23:49:46.109Z,98704.14
2023-02-21T23:52:38.578Z,98709.47
2023-02-21T23:55:13.511Z,98708.77
2023-02-21T23:57:50.497Z,98713.60
